Home > Products > Valid Products > TAF

000
FTUS43 KLOT 060300 AAA
TAFRFD
TAF AMD
KRFD 060301Z 0603/0624 19006KT P6SM FEW120
     FM061400 20014G21KT P6SM SCT100
     FM061800 22015G24KT P6SM SCT035 BKN080=



000
FTUS43 KLOT 060300 AAA
TAFDPA
TAF AMD
KDPA 060301Z 0603/0624 21006KT P6SM SKC
     FM061400 20014G21KT P6SM SCT100
     FM061800 22016G24KT P6SM SCT035 BKN080=



000
FTUS43 KLOT 060300 AAA
TAFGYY
TAF AMD
KGYY 060301Z 0603/0624 22007KT P6SM SKC
     FM061400 20013G20KT P6SM SCT100
     FM061800 22016G24KT P6SM SCT035 BKN080=



000
FTUS43 KLOT 060300 AAA
TAFORD
TAF AMD
KORD 060301Z 0603/0706 21007KT P6SM SKC
     FM061400 21014G21KT P6SM SCT100
     FM061800 22016G24KT P6SM SCT035 BKN080
     FM070100 23011KT P6SM FEW080=



000
FTUS43 KLOT 060300 AAA
TAFMDW
TAF AMD
KMDW 060301Z 0603/0624 26007KT P6SM SKC
     FM060800 21007KT P6SM SKC
     FM061400 21014G21KT P6SM SCT100
     FM061800 22016G24KT P6SM SCT035 BKN080=



000
FTUS43 KLOT 060300 AAA
TAFGYY
TAF AMD
KGYY 060301Z 0603/0624 22007KT P6SM SKC
     FM061400 20013G20KT P6SM SCT100
     FM061800 22016G24KT P6SM SCT035 BKN080=



000
FTUS43 KLOT 052300
TAFDPA
TAF
KDPA 052335Z 0600/0624 26006KT P6SM SKC
     FM060800 20006KT P6SM SCT120
     FM061400 20014G21KT P6SM SCT100
     FM061800 22016G24KT P6SM SCT035 BKN080=



000
FTUS43 KLOT 052300
TAFORD
TAF
KORD 052335Z 0600/0706 26007KT P6SM SKC
     FM060800 21007KT P6SM SCT120
     FM061400 21014G21KT P6SM SCT100
     FM061800 22016G24KT P6SM SCT035 BKN080
     FM070100 23011KT P6SM FEW080=



000
FTUS43 KLOT 052300
TAFGYY
TAF
KGYY 052335Z 0600/0624 28007KT P6SM SKC
     FM060800 20007KT P6SM SCT120
     FM061400 20013G20KT P6SM SCT100
     FM061800 22016G24KT P6SM SCT035 BKN080=



000
FTUS43 KLOT 052300
TAFGYY
TAF
KGYY 052335Z 0600/0624 28007KT P6SM SKC
     FM060800 20007KT P6SM SCT120
     FM061400 20013G20KT P6SM SCT100
     FM061800 22016G24KT P6SM SCT035 BKN080=



000
FTUS43 KLOT 052300
TAFRFD
TAF
KRFD 052335Z 0600/0624 26006KT P6SM SKC
     FM060700 19006KT P6SM SCT120
     FM061400 20014G21KT P6SM SCT100
     FM061800 22015G24KT P6SM SCT035 BKN080=



000
FTUS43 KLOT 052300
TAFMDW
TAF
KMDW 052335Z 0600/0624 26007KT P6SM SKC
     FM060800 21007KT P6SM SCT120
     FM061400 21014G21KT P6SM SCT100
     FM061800 22016G24KT P6SM SCT035 BKN080=



000
FTUS43 KLOT 052300
TAFDPA
TAF
KDPA 052335Z 0600/0624 26006KT P6SM SKC
     FM060800 20006KT P6SM SCT120
     FM061400 20014G21KT P6SM SCT100
     FM061800 22016G24KT P6SM SCT035 BKN080=



000
FTUS43 KLOT 052300
TAFGYY
TAF
KGYY 052335Z 0600/0624 28007KT P6SM SKC
     FM060800 20007KT P6SM SCT120
     FM061400 20013G20KT P6SM SCT100
     FM061800 22016G24KT P6SM SCT035 BKN080=



000
FTUS43 KLOT 052300
TAFGYY
TAF
KGYY 052335Z 0600/0624 28007KT P6SM SKC
     FM060800 20007KT P6SM SCT120
     FM061400 20013G20KT P6SM SCT100
     FM061800 22016G24KT P6SM SCT035 BKN080=



000
FTUS43 KLOT 052300
TAFMDW
TAF
KMDW 052335Z 0600/0624 26007KT P6SM SKC
     FM060800 21007KT P6SM SCT120
     FM061400 21014G21KT P6SM SCT100
     FM061800 22016G24KT P6SM SCT035 BKN080=



000
FTUS43 KLOT 052300
TAFORD
TAF
KORD 052335Z 0600/0706 26007KT P6SM SKC
     FM060800 21007KT P6SM SCT120
     FM061400 21014G21KT P6SM SCT100
     FM061800 22016G24KT P6SM SCT035 BKN080
     FM070100 23011KT P6SM FEW080=



000
FTUS43 KLOT 052300
TAFRFD
TAF
KRFD 052335Z 0600/0624 26006KT P6SM SKC
     FM060700 19006KT P6SM SCT120
     FM061400 20014G21KT P6SM SCT100
     FM061800 22015G24KT P6SM SCT035 BKN080=



000
FTUS43 KLOT 052200 AAB
TAFORD
TAF AMD
KORD 052200Z 0522/0624 30010KT P6SM SKC
     FM060000 26005KT P6SM SKC
     FM060800 21007KT P6SM SCT120
     FM061500 21013G21KT P6SM SCT080 BKN100
     FM061800 20015G24KT P6SM SCT035 BKN120=



000
FTUS43 KLOT 052200 AAB
TAFRFD
TAF AMD
KRFD 052200Z 0522/0618 30008KT P6SM SKC
     FM060000 26006KT P6SM SKC
     FM060800 21009KT P6SM SCT120
     FM061500 21014G22KT P6SM SCT080 BKN100=



000
FTUS43 KLOT 052200 AAB
TAFGYY
TAF AMD
KGYY 052200Z 0522/0618 28012KT P6SM SKC
     FM060000 25004KT P6SM SKC
     FM060800 21009KT P6SM SCT120
     FM061500 21014G22KT P6SM SCT080 BKN100=



000
FTUS43 KLOT 052200 AAB
TAFMDW
TAF AMD
KMDW 052200Z 0522/0618 31010KT P6SM SKC
     FM060000 27007KT P6SM SKC
     FM060800 21009KT P6SM SCT120
     FM061500 21014G22KT P6SM SCT080 BKN100=



000
FTUS43 KLOT 052200 AAB
TAFDPA
TAF AMD
KDPA 052200Z 0522/0618 30008KT P6SM SKC
     FM060000 27007KT P6SM SKC
     FM060800 21009KT P6SM SCT120
     FM061500 21014G22KT P6SM SCT080 BKN100=



000
FTUS43 KLOT 052200 AAB
TAFGYY
TAF AMD
KGYY 052200Z 0522/0618 28012KT P6SM SKC
     FM060000 25004KT P6SM SKC
     FM060800 21009KT P6SM SCT120
     FM061500 21014G22KT P6SM SCT080 BKN100=



000
FTUS43 KLOT 051900 AAA
TAFGYY
TAF AMD
KGYY 051954Z 0520/0618 28012KT P6SM FEW035
     FM060000 25004KT P6SM SKC
     FM060800 21009KT P6SM SCT120
     FM061500 21014G22KT P6SM SCT080 BKN100=



000
FTUS43 KLOT 051900 AAA
TAFRFD
TAF AMD
KRFD 051954Z 0520/0618 32008KT P6SM SKC
     FM060000 26006KT P6SM SKC
     FM060800 21009KT P6SM SCT120
     FM061500 21014G22KT P6SM SCT080 BKN100=



000
FTUS43 KLOT 051900 AAA
TAFGYY
TAF AMD
KGYY 051954Z 0520/0618 28012KT P6SM FEW035
     FM060000 25004KT P6SM SKC
     FM060800 21009KT P6SM SCT120
     FM061500 21014G22KT P6SM SCT080 BKN100=



000
FTUS43 KLOT 051900 AAA
TAFMDW
TAF AMD
KMDW 051954Z 0520/0618 31010KT P6SM SKC
     FM060000 27007KT P6SM SKC
     FM060800 21009KT P6SM SCT120
     FM061500 21014G22KT P6SM SCT080 BKN100=



000
FTUS43 KLOT 051900 AAA
TAFDPA
TAF AMD
KDPA 051954Z 0520/0618 30012KT P6SM SKC
     FM060000 27007KT P6SM SKC
     FM060800 21009KT P6SM SCT120
     FM061500 21014G22KT P6SM SCT080 BKN100=



000
FTUS43 KLOT 051900 AAA
TAFORD
TAF AMD
KORD 051954Z 0520/0624 30010KT P6SM SKC
     FM060000 26005KT P6SM SKC
     FM060800 21007KT P6SM SCT120
     FM061500 21013G21KT P6SM SCT080 BKN100
     FM061800 20015G24KT P6SM SCT035 BKN120=



000
FTUS43 KLOT 051900 AAA
TAFGYY
TAF AMD
KGYY 051954Z 0520/0618 28012KT P6SM FEW035
     FM060000 25004KT P6SM SKC
     FM060800 21009KT P6SM SCT120
     FM061500 21014G22KT P6SM SCT080 BKN100=



000
FTUS43 KLOT 051900 AAA
TAFDPA
TAF AMD
KDPA 051954Z 0520/0618 30012KT P6SM SKC
     FM060000 27007KT P6SM SKC
     FM060800 21009KT P6SM SCT120
     FM061500 21014G22KT P6SM SCT080 BKN100=



000
FTUS43 KLOT 051900 AAA
TAFRFD
TAF AMD
KRFD 051954Z 0520/0618 32008KT P6SM SKC
     FM060000 26006KT P6SM SKC
     FM060800 21009KT P6SM SCT120
     FM061500 21014G22KT P6SM SCT080 BKN100=



000
FTUS43 KLOT 051900 AAA
TAFORD
TAF AMD
KORD 051954Z 0520/0624 30010KT P6SM SKC
     FM060000 26005KT P6SM SKC
     FM060800 21007KT P6SM SCT120
     FM061500 21013G21KT P6SM SCT080 BKN100
     FM061800 20015G24KT P6SM SCT035 BKN120=



000
FTUS43 KLOT 051900 AAA
TAFMDW
TAF AMD
KMDW 051954Z 0520/0618 31010KT P6SM SKC
     FM060000 27007KT P6SM SKC
     FM060800 21009KT P6SM SCT120
     FM061500 21014G22KT P6SM SCT080 BKN100=



000
FTUS43 KLOT 051900 AAA
TAFGYY
TAF AMD
KGYY 051954Z 0520/0618 28012KT P6SM FEW035
     FM060000 25004KT P6SM SKC
     FM060800 21009KT P6SM SCT120
     FM061500 21014G22KT P6SM SCT080 BKN100=



000
FTUS43 KLOT 051700
TAFRFD
TAF
KRFD 051729Z 0518/0618 30010KT P6SM SKC
     FM052300 26006KT P6SM SKC
     FM060800 21009KT P6SM SCT120
     FM061500 21014G22KT P6SM SCT080 BKN100=



000
FTUS43 KLOT 051700
TAFMDW
TAF
KMDW 051729Z 0518/0618 31011KT P6SM SKC
     FM052300 27007KT P6SM SKC
     FM060800 21009KT P6SM SCT120
     FM061500 21014G22KT P6SM SCT080 BKN100=



000
FTUS43 KLOT 051700
TAFGYY
TAF
KGYY 051729Z 0518/0618 30012KT P6SM FEW035
     FM060000 25004KT P6SM SKC
     FM060800 21009KT P6SM SCT120
     FM061500 21014G22KT P6SM SCT080 BKN100=



000
FTUS43 KLOT 051700
TAFORD
TAF
KORD 051729Z 0518/0624 31012KT P6SM SKC
     FM060100 26005KT P6SM SKC
     FM060800 21007KT P6SM SCT120
     FM061500 21013G21KT P6SM SCT080 BKN100
     FM061800 20015G24KT P6SM SCT035 BKN120=



000
FTUS43 KLOT 051700
TAFDPA
TAF
KDPA 051729Z 0518/0618 30010KT P6SM SKC
     FM052300 27007KT P6SM SKC
     FM060800 21009KT P6SM SCT120
     FM061500 21014G22KT P6SM SCT080 BKN100=



000
FTUS43 KLOT 051700
TAFGYY
TAF
KGYY 051729Z 0518/0618 30012KT P6SM FEW035
     FM060000 25004KT P6SM SKC
     FM060800 21009KT P6SM SCT120
     FM061500 21014G22KT P6SM SCT080 BKN100=



000
FTUS43 KLOT 051600 AAB
TAFMDW
TAF AMD
KMDW 051602Z 0516/0612 32008KT P6SM FEW250
     FM052300 27007KT P6SM SKC
     FM060800 21009KT P6SM FEW250=



000
FTUS43 KLOT 051600 AAB
TAFGYY
TAF AMD
KGYY 051602Z 0516/0612 32011KT P6SM SCT250
     FM060000 25004KT P6SM SKC
     FM060800 21009KT P6SM FEW250=



000
FTUS43 KLOT 051600 AAB
TAFRFD
TAF AMD
KRFD 051602Z 0516/0612 30006KT P6SM SKC
     FM052300 26006KT P6SM SKC
     FM060800 21009KT P6SM FEW250=



000
FTUS43 KLOT 051600 AAB
TAFORD
TAF AMD
KORD 051602Z 0516/0618 32008KT P6SM FEW250
     FM052300 27007KT P6SM SKC
     FM060800 21009KT P6SM FEW250
     FM061500 21014G19KT P6SM SCT100=



000
FTUS43 KLOT 051600 AAB
TAFDPA
TAF AMD
KDPA 051602Z 0516/0612 33007KT P6SM FEW250
     FM052300 27007KT P6SM SKC
     FM060800 21009KT P6SM FEW250=



000
FTUS43 KLOT 051600 AAB
TAFRFD
TAF AMD
KRFD 051602Z 0516/0612 30006KT P6SM SKC
     FM052300 26006KT P6SM SKC
     FM060800 21009KT P6SM FEW250=



000
FTUS43 KLOT 051600 AAB
TAFMDW
TAF AMD
KMDW 051602Z 0516/0612 32008KT P6SM FEW250
     FM052300 27007KT P6SM SKC
     FM060800 21009KT P6SM FEW250=



000
FTUS43 KLOT 051600 AAB
TAFGYY
TAF AMD
KGYY 051602Z 0516/0612 32011KT P6SM SCT250
     FM060000 25004KT P6SM SKC
     FM060800 21009KT P6SM FEW250=



000
FTUS43 KLOT 051600 AAB
TAFORD
TAF AMD
KORD 051602Z 0516/0618 32008KT P6SM FEW250
     FM052300 27007KT P6SM SKC
     FM060800 21009KT P6SM FEW250
     FM061500 21014G19KT P6SM SCT100=



000
FTUS43 KLOT 051600 AAB
TAFDPA
TAF AMD
KDPA 051602Z 0516/0612 33007KT P6SM FEW250
     FM052300 27007KT P6SM SKC
     FM060800 21009KT P6SM FEW250=



000
FTUS43 KLOT 051600 AAB
TAFGYY
TAF AMD
KGYY 051602Z 0516/0612 32011KT P6SM SCT250
     FM060000 25004KT P6SM SKC
     FM060800 21009KT P6SM FEW250=



000
FTUS43 KLOT 051400 AAA
TAFGYY
TAF AMD
KGYY 051404Z 0514/0612 30009KT P6SM SCT250
     FM060000 25004KT P6SM SKC
     FM060800 21009KT P6SM FEW250=



000
FTUS43 KLOT 051400 AAA
TAFDPA
TAF AMD
KDPA 051404Z 0514/0612 32008KT P6SM FEW250
     FM052300 27007KT P6SM SKC
     FM060800 21009KT P6SM FEW250=



000
FTUS43 KLOT 051400 AAA
TAFRFD
TAF AMD
KRFD 051404Z 0514/0612 30007KT P6SM SKC
     FM052300 26006KT P6SM SKC
     FM060800 21009KT P6SM FEW250=



000
FTUS43 KLOT 051400 AAA
TAFMDW
TAF AMD
KMDW 051404Z 0514/0612 31009KT P6SM FEW250
     FM052300 27007KT P6SM SKC
     FM060800 21009KT P6SM FEW250=



000
FTUS43 KLOT 051400 AAA
TAFORD
TAF AMD
KORD 051404Z 0514/0618 32009KT P6SM SCT250
     FM051600 31009KT P6SM FEW250
     FM052300 27007KT P6SM SKC
     FM060800 21009KT P6SM FEW250
     FM061500 21014G19KT P6SM SCT100=



000
FTUS43 KLOT 051400 AAA
TAFGYY
TAF AMD
KGYY 051404Z 0514/0612 30009KT P6SM SCT250
     FM060000 25004KT P6SM SKC
     FM060800 21009KT P6SM FEW250=



000
FTUS43 KLOT 051100
TAFGYY
TAF
KGYY 051132Z 0512/0612 33009KT P6SM SCT250
     FM060000 25004KT P6SM SKC
     FM060800 21009KT P6SM FEW250=



000
FTUS43 KLOT 051100
TAFGYY
TAF
KGYY 051132Z 0512/0612 33009KT P6SM SCT250
     FM060000 25004KT P6SM SKC
     FM060800 21009KT P6SM FEW250=



000
FTUS43 KLOT 051100
TAFGYY
TAF
KGYY 051132Z 0512/0612 33009KT P6SM SCT250
     FM060000 25004KT P6SM SKC
     FM060800 21009KT P6SM FEW250=



000
FTUS43 KLOT 051100
TAFRFD
TAF
KRFD 051132Z 0512/0612 33009KT P6SM SCT250
     FM052300 26006KT P6SM SKC
     FM060800 21009KT P6SM FEW250=



000
FTUS43 KLOT 051100
TAFDPA
TAF
KDPA 051132Z 0512/0612 33009KT P6SM FEW250
     FM052300 27007KT P6SM SKC
     FM060800 21009KT P6SM FEW250=



000
FTUS43 KLOT 051100
TAFMDW
TAF
KMDW 051132Z 0512/0612 33009KT P6SM FEW250
     FM052300 27007KT P6SM SKC
     FM060800 21009KT P6SM FEW250=



000
FTUS43 KLOT 051100
TAFMDW
TAF
KMDW 051132Z 0512/0612 33009KT P6SM FEW250
     FM052300 27007KT P6SM SKC
     FM060800 21009KT P6SM FEW250=



000
FTUS43 KLOT 051100
TAFRFD
TAF
KRFD 051132Z 0512/0612 33009KT P6SM SCT250
     FM052300 26006KT P6SM SKC
     FM060800 21009KT P6SM FEW250=



000
FTUS43 KLOT 051100
TAFORD
TAF
KORD 051132Z 0512/0618 34009KT P6SM SCT250
     FM051500 32009KT P6SM FEW250
     FM052300 27007KT P6SM SKC
     FM060800 21009KT P6SM FEW250
     FM061500 21014G19KT P6SM SCT100=



000
FTUS43 KLOT 051100
TAFGYY
TAF
KGYY 051132Z 0512/0612 33009KT P6SM SCT250
     FM060000 25004KT P6SM SKC
     FM060800 21009KT P6SM FEW250=



000
FTUS43 KLOT 051100
TAFDPA
TAF
KDPA 051132Z 0512/0612 33009KT P6SM FEW250
     FM052300 27007KT P6SM SKC
     FM060800 21009KT P6SM FEW250=



000
FTUS43 KLOT 051100
TAFORD
TAF
KORD 051132Z 0512/0618 34009KT P6SM SCT250
     FM051500 32009KT P6SM FEW250
     FM052300 27007KT P6SM SKC
     FM060800 21009KT P6SM FEW250
     FM061500 21014G19KT P6SM SCT100=



000
FTUS43 KLOT 050900 AAA
TAFGYY
TAF AMD
KGYY 050901Z 0509/0606 31009KT P6SM SCT200
     FM060000 25004KT P6SM SKC=



000
FTUS43 KLOT 050900 AAA
TAFGYY
TAF AMD
KGYY 050901Z 0509/0606 31009KT P6SM SCT200
     FM060000 25004KT P6SM SKC=



000
FTUS43 KLOT 050900 AAA
TAFMDW
TAF AMD
KMDW 050901Z 0509/0606 36009KT P6SM BKN200
     FM051100 32009KT P6SM SCT200
     FM052300 27007KT P6SM SKC=



000
FTUS43 KLOT 050900 AAA
TAFORD
TAF AMD
KORD 050901Z 0509/0612 36009KT P6SM BKN200
     FM051100 32009KT P6SM SCT200
     FM052300 27007KT P6SM SKC
     FM060800 21009KT P6SM FEW250=



000
FTUS43 KLOT 050900 AAA
TAFRFD
TAF AMD
KRFD 050901Z 0509/0606 32009KT P6SM SCT040 SCT200
     FM052300 26006KT P6SM SKC=



000
FTUS43 KLOT 050900 AAA
TAFDPA
TAF AMD
KDPA 050901Z 0509/0606 36009KT P6SM BKN200
     FM051100 32009KT P6SM SCT200
     FM052300 27007KT P6SM SKC=



000
FTUS43 KLOT 050500
TAFGYY
TAF
KGYY 050528Z 0506/0606 30009KT P6SM SCT200
     FM060000 25004KT P6SM SKC=



000
FTUS43 KLOT 050500
TAFGYY
TAF
KGYY 050528Z 0506/0606 30009KT P6SM SCT200
     FM060000 25004KT P6SM SKC=



000
FTUS43 KLOT 050500
TAFRFD
TAF
KRFD 050528Z 0506/0606 31009KT P6SM SCT040 SCT200
     FM052300 26006KT P6SM SKC=



000
FTUS43 KLOT 050500
TAFDPA
TAF
KDPA 050528Z 0506/0606 31009KT P6SM SCT200
     FM052300 27007KT P6SM SKC=



000
FTUS43 KLOT 050500
TAFMDW
TAF
KMDW 050528Z 0506/0606 31009KT P6SM SCT200
     FM052300 27007KT P6SM SKC=



000
FTUS43 KLOT 050500
TAFGYY
TAF
KGYY 050528Z 0506/0606 30009KT P6SM SCT200
     FM060000 25004KT P6SM SKC=



000
FTUS43 KLOT 050500
TAFORD
TAF
KORD 050528Z 0506/0612 31009KT P6SM SCT200
     FM052300 27007KT P6SM SKC
     FM060800 21009KT P6SM FEW250=



000
FTUS43 KLOT 050500
TAFMDW
TAF
KMDW 050528Z 0506/0606 31009KT P6SM SCT200
     FM052300 27007KT P6SM SKC=



000
FTUS43 KLOT 050500
TAFORD
TAF
KORD 050528Z 0506/0612 31009KT P6SM SCT200
     FM052300 27007KT P6SM SKC
     FM060800 21009KT P6SM FEW250=



000
FTUS43 KLOT 050500
TAFRFD
TAF
KRFD 050528Z 0506/0606 31009KT P6SM SCT040 SCT200
     FM052300 26006KT P6SM SKC=



000
FTUS43 KLOT 050500
TAFDPA
TAF
KDPA 050528Z 0506/0606 31009KT P6SM SCT200
     FM052300 27007KT P6SM SKC=



000
FTUS43 KLOT 050500
TAFGYY
TAF
KGYY 050528Z 0506/0606 30009KT P6SM SCT200
     FM060000 25004KT P6SM SKC=



000
FTUS43 KLOT 050300 AAA
TAFGYY
TAF AMD
KGYY 050301Z 0503/0524 30009KT P6SM SCT200=



000
FTUS43 KLOT 050300 AAA
TAFRFD
TAF AMD
KRFD 050301Z 0503/0524 30008KT P6SM SCT200
     FM052300 26006KT P6SM SKC=



000
FTUS43 KLOT 050300 AAA
TAFDPA
TAF AMD
KDPA 050301Z 0503/0524 30007KT P6SM SCT200
     FM052300 27007KT P6SM SKC=



000
FTUS43 KLOT 050300 AAA
TAFMDW
TAF AMD
KMDW 050301Z 0503/0524 30008KT P6SM SCT200
     FM052300 27007KT P6SM SKC=



000
FTUS43 KLOT 050300 AAA
TAFGYY
TAF AMD
KGYY 050301Z 0503/0524 30009KT P6SM SCT200=



000
FTUS43 KLOT 050300 AAA
TAFGYY
TAF AMD
KGYY 050301Z 0503/0524 30009KT P6SM SCT200=



000
FTUS43 KLOT 050300 AAA
TAFORD
TAF AMD
KORD 050301Z 0503/0606 30008KT P6SM SCT200
     FM052300 27007KT P6SM SKC=



000
FTUS43 KLOT 042300
TAFGYY
TAF
KGYY 042338Z 0500/0524 31013G20KT P6SM SCT100 BKN250
     FM050100 30009KT P6SM SCT200=



000
FTUS43 KLOT 042300
TAFGYY
TAF
KGYY 042338Z 0500/0524 31013G20KT P6SM SCT100 BKN250
     FM050100 30009KT P6SM SCT200=



000
FTUS43 KLOT 042300
TAFORD
TAF
KORD 042338Z 0500/0606 31012G18KT P6SM SCT100 BKN250
     FM050100 30008KT P6SM SCT200
     FM052300 27007KT P6SM SKC=



000
FTUS43 KLOT 042300
TAFRFD
TAF
KRFD 042338Z 0500/0524 30013G19KT P6SM SCT100 BKN250
     FM050100 30007KT P6SM SCT200
     FM052300 26006KT P6SM SKC=



000
FTUS43 KLOT 042300
TAFMDW
TAF
KMDW 042338Z 0500/0524 31012G18KT P6SM SCT100 BKN250
     FM050100 30008KT P6SM SCT200
     FM052300 27007KT P6SM SKC=



000
FTUS43 KLOT 042300
TAFDPA
TAF
KDPA 042338Z 0500/0524 29013G19KT P6SM SCT100 BKN250
     FM050100 30007KT P6SM SCT200
     FM052300 27007KT P6SM SKC=



000
FTUS43 KLOT 042200 AAB
TAFRFD
TAF AMD
KRFD 042206Z 0422/0518 31013G19KT P6SM SCT100 BKN250
     FM050100 30007KT P6SM SCT200=



000
FTUS43 KLOT 042200 AAB
TAFDPA
TAF AMD
KDPA 042206Z 0422/0518 31013G19KT P6SM SCT100 BKN250
     FM050100 30007KT P6SM SCT200=



000
FTUS43 KLOT 042200 AAB
TAFGYY
TAF AMD
KGYY 042206Z 0422/0518 31013G20KT P6SM SCT100 BKN250
     FM050100 30009KT P6SM SCT200=



000
FTUS43 KLOT 042200 AAB
TAFRFD
TAF AMD
KRFD 042206Z 0422/0518 31013G19KT P6SM SCT100 BKN250
     FM050100 30007KT P6SM SCT200=



000
FTUS43 KLOT 042200 AAC
TAFORD
TAF AMD
KORD 042206Z 0422/0524 31012G18KT P6SM SCT100 BKN250
     FM050100 30008KT P6SM SCT200
     FM052100 27007KT P6SM SKC=



000
FTUS43 KLOT 042200 AAB
TAFMDW
TAF AMD
KMDW 042206Z 0422/0518 31012G18KT P6SM SCT100 BKN250
     FM050100 30008KT P6SM SCT200=



000
FTUS43 KLOT 042200 AAB
TAFDPA
TAF AMD
KDPA 042206Z 0422/0518 31013G19KT P6SM SCT100 BKN250
     FM050100 30007KT P6SM SCT200=



000
FTUS43 KLOT 042200 AAB
TAFGYY
TAF AMD
KGYY 042206Z 0422/0518 31013G20KT P6SM SCT100 BKN250
     FM050100 30009KT P6SM SCT200=



000
FTUS43 KLOT 042000 AAB
TAFORD
TAF AMD
KORD 042022Z 0420/0524 33013G20KT P6SM BKN150 BKN250
     FM042200 31012G18KT P6SM SCT100 BKN250
     FM050100 30008KT P6SM SCT200
     FM052100 27007KT P6SM SKC=



000
FTUS43 KLOT 042000 AAB
TAFORD
TAF AMD
KORD 042022Z 0420/0524 33013G20KT P6SM BKN150 BKN250
     FM042200 31012G18KT P6SM SCT100 BKN250
     FM050100 30008KT P6SM SCT200
     FM052100 27007KT P6SM SKC=



000
FTUS43 KLOT 041900 AAA
TAFGYY
TAF AMD
KGYY 041959Z 0420/0518 31013G20KT P6SM SCT100 BKN250
     FM050100 30009KT P6SM SCT200=



000
FTUS43 KLOT 041900 AAA
TAFDPA
TAF AMD
KDPA 041959Z 0420/0518 31013G19KT P6SM SCT100 BKN250
     FM050100 30007KT P6SM SCT200=



000
FTUS43 KLOT 041900 AAA
TAFRFD
TAF AMD
KRFD 041959Z 0420/0518 31013G19KT P6SM SCT100 BKN250
     FM050100 30007KT P6SM SCT200=



000
FTUS43 KLOT 041900 AAA
TAFORD
TAF AMD
KORD 041959Z 0420/0524 31012G18KT P6SM SCT100 BKN250
     FM050100 30008KT P6SM SCT200
     FM052100 27007KT P6SM SKC=



000
FTUS43 KLOT 041900 AAA
TAFMDW
TAF AMD
KMDW 041959Z 0420/0518 31012G18KT P6SM SCT100 BKN250
     FM050100 30008KT P6SM SCT200=



000
FTUS43 KLOT 041900 AAA
TAFGYY
TAF AMD
KGYY 041959Z 0420/0518 31013G20KT P6SM SCT100 BKN250
     FM050100 30009KT P6SM SCT200=



000
FTUS43 KLOT 041900 AAA
TAFMDW
TAF AMD
KMDW 041959Z 0420/0518 31012G18KT P6SM SCT100 BKN250
     FM050100 30008KT P6SM SCT200=



000
FTUS43 KLOT 041900 AAA
TAFORD
TAF AMD
KORD 041959Z 0420/0524 31012G18KT P6SM SCT100 BKN250
     FM050100 30008KT P6SM SCT200
     FM052100 27007KT P6SM SKC=



000
FTUS43 KLOT 041900 AAA
TAFGYY
TAF AMD
KGYY 041959Z 0420/0518 31013G20KT P6SM SCT100 BKN250
     FM050100 30009KT P6SM SCT200=



000
FTUS43 KLOT 041900 AAA
TAFDPA
TAF AMD
KDPA 041959Z 0420/0518 31013G19KT P6SM SCT100 BKN250
     FM050100 30007KT P6SM SCT200=



000
FTUS43 KLOT 041900 AAA
TAFRFD
TAF AMD
KRFD 041959Z 0420/0518 31013G19KT P6SM SCT100 BKN250
     FM050100 30007KT P6SM SCT200=



000
FTUS43 KLOT 041900 AAA
TAFGYY
TAF AMD
KGYY 041959Z 0420/0518 31013G20KT P6SM SCT100 BKN250
     FM050100 30009KT P6SM SCT200=



000
FTUS43 KLOT 041700
TAFGYY
TAF
KGYY 041720Z 0418/0518 30013G20KT P6SM BKN100 BKN250
     FM050100 30009KT P6SM SCT200=



000
FTUS43 KLOT 041700
TAFDPA
TAF
KDPA 041720Z 0418/0518 31013G19KT P6SM BKN100 BKN250
     FM050100 30007KT P6SM SCT200=



000
FTUS43 KLOT 041700
TAFGYY
TAF
KGYY 041720Z 0418/0518 30013G20KT P6SM BKN100 BKN250
     FM050100 30009KT P6SM SCT200=



000
FTUS43 KLOT 041700
TAFMDW
TAF
KMDW 041720Z 0418/0518 31012G18KT P6SM BKN100 BKN250
     FM050100 30008KT P6SM SCT200=



000
FTUS43 KLOT 041700
TAFORD
TAF
KORD 041720Z 0418/0524 31012G18KT P6SM BKN100 BKN250
     FM050100 30008KT P6SM SCT200
     FM052100 27007KT P6SM SKC=



000
FTUS43 KLOT 041700
TAFRFD
TAF
KRFD 041720Z 0418/0518 31013G19KT P6SM BKN100 BKN250
     FM050100 30007KT P6SM SCT200=



000
FTUS43 KLOT 041700
TAFGYY
TAF
KGYY 041720Z 0418/0518 30013G20KT P6SM BKN100 BKN250
     FM050100 30009KT P6SM SCT200=



000
FTUS43 KLOT 041700
TAFDPA
TAF
KDPA 041720Z 0418/0518 31013G19KT P6SM BKN100 BKN250
     FM050100 30007KT P6SM SCT200=



000
FTUS43 KLOT 041700
TAFGYY
TAF
KGYY 041720Z 0418/0518 30013G20KT P6SM BKN100 BKN250
     FM050100 30009KT P6SM SCT200=



000
FTUS43 KLOT 041700
TAFORD
TAF
KORD 041720Z 0418/0524 31012G18KT P6SM BKN100 BKN250
     FM050100 30008KT P6SM SCT200
     FM052100 27007KT P6SM SKC=



000
FTUS43 KLOT 041700
TAFRFD
TAF
KRFD 041720Z 0418/0518 31013G19KT P6SM BKN100 BKN250
     FM050100 30007KT P6SM SCT200=



000
FTUS43 KLOT 041700
TAFMDW
TAF
KMDW 041720Z 0418/0518 31012G18KT P6SM BKN100 BKN250
     FM050100 30008KT P6SM SCT200=



000
FTUS43 KLOT 041600 AAB
TAFGYY
TAF AMD
KGYY 041605Z 0416/0512 30014G20KT P6SM BKN100 BKN250
     FM050100 32010KT P6SM BKN200=



000
FTUS43 KLOT 041600 AAB
TAFDPA
TAF AMD
KDPA 041605Z 0416/0512 31013G19KT P6SM BKN100 BKN250
     FM050100 32010KT P6SM BKN200=



000
FTUS43 KLOT 041600 AAB
TAFORD
TAF AMD
KORD 041605Z 0416/0518 31013G19KT P6SM BKN100 BKN250
     FM050100 32010KT P6SM BKN200=



000
FTUS43 KLOT 041600 AAB
TAFRFD
TAF AMD
KRFD 041605Z 0416/0512 31014G20KT P6SM BKN100 BKN250
     FM050100 32010KT P6SM BKN200=



000
FTUS43 KLOT 041600 AAB
TAFMDW
TAF AMD
KMDW 041605Z 0416/0512 31013G19KT P6SM BKN100 BKN250
     FM050100 32010KT P6SM BKN200=



000
FTUS43 KLOT 041600 AAB
TAFGYY
TAF AMD
KGYY 041605Z 0416/0512 30014G20KT P6SM BKN100 BKN250
     FM050100 32010KT P6SM BKN200=



000
FTUS43 KLOT 041300 AAA
TAFRFD
TAF AMD
KRFD 041405Z 0414/0512 30011KT P6SM BKN100 BKN250
     FM041600 31013G19KT P6SM FEW025 BKN120
     FM050100 32010KT P6SM BKN200=



000
FTUS43 KLOT 041300 AAA
TAFDPA
TAF AMD
KDPA 041405Z 0414/0512 30011KT P6SM BKN100 BKN250
     FM041600 31013G19KT P6SM FEW025 BKN120
     FM050100 32010KT P6SM BKN200=



000
FTUS43 KLOT 041300 AAA
TAFGYY
TAF AMD
KGYY 041405Z 0414/0512 30011KT P6SM SCT100 BKN250
     FM041600 32013G19KT P6SM FEW025 BKN120
     FM050100 32010KT P6SM BKN200=



000
FTUS43 KLOT 041300 AAA
TAFGYY
TAF AMD
KGYY 041405Z 0414/0512 30011KT P6SM SCT100 BKN250
     FM041600 32013G19KT P6SM FEW025 BKN120
     FM050100 32010KT P6SM BKN200=



000
FTUS43 KLOT 041300 AAA
TAFMDW
TAF AMD
KMDW 041405Z 0414/0512 30011KT P6SM SCT100 BKN250
     FM041600 31013G19KT P6SM FEW025 BKN120
     FM050100 32010KT P6SM BKN200=



000
FTUS43 KLOT 041300 AAA
TAFORD
TAF AMD
KORD 041405Z 0414/0518 31011KT P6SM SCT100 BKN250
     FM041600 31013G19KT P6SM FEW025 BKN120
     FM050100 32010KT P6SM BKN200=



000
FTUS43 KLOT 041100
TAFRFD
TAF
KRFD 041134Z 0412/0512 30011KT P6SM BKN250
     FM041400 31013G19KT P6SM FEW025 BKN120
     FM050100 32010KT P6SM BKN200=



000
FTUS43 KLOT 041100
TAFGYY
TAF
KGYY 041134Z 0412/0512 30011KT P6SM BKN250
     FM041400 32013G19KT P6SM FEW025 BKN120
     FM050100 32010KT P6SM BKN200=



000
FTUS43 KLOT 041100
TAFGYY
TAF
KGYY 041134Z 0412/0512 30011KT P6SM BKN250
     FM041400 32013G19KT P6SM FEW025 BKN120
     FM050100 32010KT P6SM BKN200=



000
FTUS43 KLOT 041100
TAFDPA
TAF
KDPA 041134Z 0412/0512 30011KT P6SM BKN250
     FM041400 31013G19KT P6SM FEW025 BKN120
     FM050100 32010KT P6SM BKN200=



000
FTUS43 KLOT 041100
TAFMDW
TAF
KMDW 041134Z 0412/0512 30011KT P6SM BKN250
     FM041400 31013G19KT P6SM FEW025 BKN120
     FM050100 32010KT P6SM BKN200=



000
FTUS43 KLOT 041100
TAFORD
TAF
KORD 041134Z 0412/0518 30011KT P6SM BKN250
     FM041400 31013G19KT P6SM FEW025 BKN120
     FM050100 32010KT P6SM BKN200=



000
FTUS43 KLOT 040900 AAA
TAFGYY
TAF AMD
KGYY 040900Z 0409/0506 28008KT P6SM BKN025 OVC250
     FM041000 30011KT P6SM SCT025 BKN250
     FM041400 31012G20KT P6SM SCT025 BKN150
     FM041800 31015G25KT P6SM SCT020 BKN100
     FM050100 32010KT P6SM BKN200=



000
FTUS43 KLOT 040900 AAA
TAFMDW
TAF AMD
KMDW 040900Z 0409/0506 30011KT P6SM BKN250
     FM041400 31012G20KT P6SM SCT025 BKN150
     FM041800 31015G25KT P6SM SCT020 BKN100
     FM050100 32010KT P6SM BKN200=



000
FTUS43 KLOT 040900 AAA
TAFRFD
TAF AMD
KRFD 040900Z 0409/0506 31011KT P6SM SCT120 BKN250
     FM041400 30012G20KT P6SM SCT025 BKN150
     FM041800 31015G25KT P6SM SCT020 BKN100
     FM050100 32010KT P6SM BKN200=



000
FTUS43 KLOT 040900 AAA
TAFORD
TAF AMD
KORD 040900Z 0409/0512 30011KT P6SM BKN250
     FM041400 31012G20KT P6SM SCT025 BKN150
     FM041800 31015G25KT P6SM SCT020 BKN100
     FM050100 32010KT P6SM BKN200=



000
FTUS43 KLOT 040900 AAA
TAFGYY
TAF AMD
KGYY 040900Z 0409/0506 28008KT P6SM BKN025 OVC250
     FM041000 30011KT P6SM SCT025 BKN250
     FM041400 31012G20KT P6SM SCT025 BKN150
     FM041800 31015G25KT P6SM SCT020 BKN100
     FM050100 32010KT P6SM BKN200=



000
FTUS43 KLOT 040900 AAA
TAFDPA
TAF AMD
KDPA 040900Z 0409/0506 30011KT P6SM BKN250
     FM041400 30012G20KT P6SM SCT025 BKN150
     FM041800 31015G25KT P6SM SCT020 BKN100
     FM050100 32010KT P6SM BKN200=



000
FTUS43 KLOT 040500
TAFGYY
TAF
KGYY 040528Z 0406/0506 29011KT P6SM SCT030 OVC200
      TEMPO 0406/0409 BKN030
     FM040900 31011KT P6SM BKN250
     FM041400 31012G20KT P6SM SCT025 BKN150
     FM041800 31015G25KT P6SM SCT100 BKN200
     FM050100 32010KT P6SM BKN200=



000
FTUS43 KLOT 040500
TAFORD
TAF
KORD 040528Z 0406/0512 29009KT P6SM BKN025 OVC200
      TEMPO 0406/0409 BKN035
     FM040900 31011KT P6SM BKN250
     FM041400 31012G20KT P6SM SCT025 BKN150
     FM041800 31015G25KT P6SM SCT100 BKN200
     FM050100 32010KT P6SM BKN200=



000
FTUS43 KLOT 040500
TAFGYY
TAF
KGYY 040528Z 0406/0506 29011KT P6SM SCT030 OVC200
      TEMPO 0406/0409 BKN030
     FM040900 31011KT P6SM BKN250
     FM041400 31012G20KT P6SM SCT025 BKN150
     FM041800 31015G25KT P6SM SCT100 BKN200
     FM050100 32010KT P6SM BKN200=



000
FTUS43 KLOT 040500
TAFGYY
TAF
KGYY 040528Z 0406/0506 29011KT P6SM SCT030 OVC200
      TEMPO 0406/0409 BKN030
     FM040900 31011KT P6SM BKN250
     FM041400 31012G20KT P6SM SCT025 BKN150
     FM041800 31015G25KT P6SM SCT100 BKN200
     FM050100 32010KT P6SM BKN200=



000
FTUS43 KLOT 040500
TAFDPA
TAF
KDPA 040528Z 0406/0506 29009KT P6SM BKN025
     FM040900 31011KT P6SM BKN250
     FM041400 30012G20KT P6SM SCT025 BKN150
     FM041800 31015G25KT P6SM SCT100 BKN200
     FM050100 32010KT P6SM BKN200=



000
FTUS43 KLOT 040500
TAFRFD
TAF
KRFD 040528Z 0406/0506 29010KT P6SM OVC025
     FM040800 31011KT P6SM BKN250
     FM041400 30012G20KT P6SM SCT025 BKN150
     FM041800 31015G25KT P6SM SCT100 BKN200
     FM050100 32010KT P6SM BKN200=



000
FTUS43 KLOT 040500
TAFMDW
TAF
KMDW 040528Z 0406/0506 29007KT P6SM SCT030 OVC200
      TEMPO 0406/0409 BKN030
     FM040900 31011KT P6SM BKN250
     FM041400 31012G20KT P6SM SCT025 BKN150
     FM041800 31015G25KT P6SM SCT100 BKN200
     FM050100 32010KT P6SM BKN200=



000
FTUS43 KLOT 040500
TAFMDW
TAF
KMDW 040528Z 0406/0506 29007KT P6SM SCT030 OVC200
      TEMPO 0406/0409 BKN030
     FM040900 31011KT P6SM BKN250
     FM041400 31012G20KT P6SM SCT025 BKN150
     FM041800 31015G25KT P6SM SCT100 BKN200
     FM050100 32010KT P6SM BKN200=



000
FTUS43 KLOT 040500
TAFDPA
TAF
KDPA 040528Z 0406/0506 29009KT P6SM BKN025
     FM040900 31011KT P6SM BKN250
     FM041400 30012G20KT P6SM SCT025 BKN150
     FM041800 31015G25KT P6SM SCT100 BKN200
     FM050100 32010KT P6SM BKN200=



000
FTUS43 KLOT 040500
TAFORD
TAF
KORD 040528Z 0406/0512 29009KT P6SM BKN025 OVC200
      TEMPO 0406/0409 BKN035
     FM040900 31011KT P6SM BKN250
     FM041400 31012G20KT P6SM SCT025 BKN150
     FM041800 31015G25KT P6SM SCT100 BKN200
     FM050100 32010KT P6SM BKN200=



000
FTUS43 KLOT 040500
TAFRFD
TAF
KRFD 040528Z 0406/0506 29010KT P6SM OVC025
     FM040800 31011KT P6SM BKN250
     FM041400 30012G20KT P6SM SCT025 BKN150
     FM041800 31015G25KT P6SM SCT100 BKN200
     FM050100 32010KT P6SM BKN200=



000
FTUS43 KLOT 040500
TAFGYY
TAF
KGYY 040528Z 0406/0506 29011KT P6SM SCT030 OVC200
      TEMPO 0406/0409 BKN030
     FM040900 31011KT P6SM BKN250
     FM041400 31012G20KT P6SM SCT025 BKN150
     FM041800 31015G25KT P6SM SCT100 BKN200
     FM050100 32010KT P6SM BKN200=



000
FTUS43 KLOT 040200 AAA
TAFGYY
TAF AMD
KGYY 040208Z 0402/0424 25012KT P6SM SCT020 OVC035
     FM040300 30011KT P6SM OVC020
     FM041400 31012G20KT P6SM SCT025 BKN150
     FM041800 31015G25KT P6SM BKN200=



000
FTUS43 KLOT 040200 AAA
TAFMDW
TAF AMD
KMDW 040208Z 0402/0424 29007KT P6SM SCT027 BKN030 OVC150
     FM040300 29007KT P6SM BKN027 OVC150
     FM041400 31012G20KT P6SM SCT025 BKN150
     FM041800 31015G25KT P6SM BKN200=



000
FTUS43 KLOT 040200 AAA
TAFORD
TAF AMD
KORD 040208Z 0402/0506 29009KT P6SM SCT025 OVC150
     FM040300 29009KT P6SM BKN025 OVC150
     FM041400 31012G20KT P6SM SCT025 BKN150
     FM041800 31015G25KT P6SM BKN200
     FM050100 32010KT P6SM BKN200=



000
FTUS43 KLOT 040200 AAA
TAFGYY
TAF AMD
KGYY 040208Z 0402/0424 25012KT P6SM SCT020 OVC035
     FM040300 30011KT P6SM OVC020
     FM041400 31012G20KT P6SM SCT025 BKN150
     FM041800 31015G25KT P6SM BKN200=



000
FTUS43 KLOT 040200 AAA
TAFRFD
TAF AMD
KRFD 040208Z 0402/0424 29010KT P6SM OVC026
     FM041400 30012G20KT P6SM SCT025 BKN150
     FM041800 31015G25KT P6SM BKN200=



000
FTUS43 KLOT 040200 AAA
TAFDPA
TAF AMD
KDPA 040208Z 0402/0424 29008KT P6SM SCT019
     FM040300 29009KT P6SM BKN025
     FM041400 30012G20KT P6SM SCT025 BKN150
     FM041800 31015G25KT P6SM BKN200=



000
FTUS43 KLOT 032300
TAFGYY
TAF
KGYY 032321Z 0400/0424 28015G25KT P6SM OVC017
     FM040300 30011KT P6SM OVC020
     FM041400 31012G20KT P6SM SCT025 BKN150
     FM041800 31015G25KT P6SM BKN200=



000
FTUS43 KLOT 032300
TAFDPA
TAF
KDPA 032321Z 0400/0424 26012G18KT P6SM OVC014
     FM040200 30011KT P6SM OVC020
     FM041400 30012G20KT P6SM SCT025 BKN150
     FM041800 31015G25KT P6SM BKN200=



000
FTUS43 KLOT 032300
TAFRFD
TAF
KRFD 032321Z 0400/0424 29013G18KT P6SM BKN019
     FM040200 29011KT P6SM BKN020
     FM041400 30012G20KT P6SM SCT025 BKN150
     FM041800 31015G25KT P6SM BKN200=



000
FTUS43 KLOT 032300
TAFGYY
TAF
KGYY 032321Z 0400/0424 28015G25KT P6SM OVC017
     FM040300 30011KT P6SM OVC020
     FM041400 31012G20KT P6SM SCT025 BKN150
     FM041800 31015G25KT P6SM BKN200=



000
FTUS43 KLOT 032300
TAFORD
TAF
KORD 032321Z 0400/0506 28012G18KT P6SM OVC016
     FM040200 30011KT P6SM OVC020
     FM041400 31012G20KT P6SM SCT025 BKN150
     FM041800 31015G25KT P6SM BKN200
     FM050100 32010KT P6SM BKN200=



000
FTUS43 KLOT 032300
TAFMDW
TAF
KMDW 032321Z 0400/0424 27012G18KT P6SM OVC016
     FM040200 30011KT P6SM OVC020
     FM041400 31012G20KT P6SM SCT025 BKN150
     FM041800 31015G25KT P6SM BKN200=



000
FTUS43 KLOT 032100 AAC
TAFDPA
TAF AMD
KDPA 032154Z 0322/0418 26014G24KT P6SM OVC010
     FM040200 29011KT P6SM OVC015
     FM041400 30012G20KT P6SM SCT025 BKN150=



000
FTUS43 KLOT 032100 AAC
TAFRFD
TAF AMD
KRFD 032154Z 0322/0418 28010G20KT P6SM OVC011
     FM040200 29011KT P6SM OVC015
     FM041400 30012G20KT P6SM SCT025 BKN150=



000
FTUS43 KLOT 032100 AAC
TAFMDW
TAF AMD
KMDW 032154Z 0322/0418 27014G22KT P6SM OVC015
     FM040200 29011KT P6SM OVC015
     FM041400 31012G20KT P6SM SCT025 BKN150=



000
FTUS43 KLOT 032100 AAB
TAFGYY
TAF AMD
KGYY 032154Z 0322/0418 25014G23KT 4SM BR OVC010
     FM040300 29011KT P6SM OVC015
     FM041400 31012G20KT P6SM SCT025 BKN150=



000
FTUS43 KLOT 032100 AAB
TAFGYY
TAF AMD
KGYY 032154Z 0322/0418 25014G23KT 4SM BR OVC010
     FM040300 29011KT P6SM OVC015
     FM041400 31012G20KT P6SM SCT025 BKN150=



000
FTUS43 KLOT 032100 AAC
TAFORD
TAF AMD
KORD 032154Z 0322/0424 27015G22KT P6SM OVC015
     FM040200 29011KT P6SM OVC015
     FM041400 31012G20KT P6SM SCT025 BKN150
     FM041800 31015G25KT P6SM BKN100=



000
FTUS43 KLOT 032100 AAB
TAFRFD
TAF AMD
KRFD 032108Z 0321/0418 28010G20KT P6SM OVC011
     FM040200 29011KT P6SM OVC015
     FM041400 30012G20KT P6SM SCT025 BKN150=



000
FTUS43 KLOT 032100 AAB
TAFMDW
TAF AMD
KMDW 032106Z 0321/0418 26014G24KT P6SM OVC012
     FM040200 29011KT P6SM OVC015
     FM041400 31012G20KT P6SM SCT025 BKN150=



000
FTUS43 KLOT 032100 AAB
TAFDPA
TAF AMD
KDPA 032106Z 0321/0418 26014G24KT P6SM OVC010
     FM040200 29011KT P6SM OVC015
     FM041400 30012G20KT P6SM SCT025 BKN150=



000
FTUS43 KLOT 032100 AAB
TAFORD
TAF AMD
KORD 032103Z 0321/0424 27015G22KT P6SM OVC014
     FM040200 29011KT P6SM OVC015
     FM041400 31012G20KT P6SM SCT025 BKN150
     FM041800 31015G25KT P6SM BKN100=



000
FTUS43 KLOT 031900 AAA
TAFGYY
TAF AMD
KGYY 031954Z 0320/0418 20014G24KT 3SM -DZ BR OVC008
     FM032200 25014G23KT 4SM BR OVC009
     FM040300 29011KT P6SM OVC015
     FM041400 31012G20KT P6SM SCT025 BKN150=



000
FTUS43 KLOT 031900 AAA
TAFDPA
TAF AMD
KDPA 031954Z 0320/0418 24014G24KT 2SM -DZ BR OVC007
      TEMPO 0320/0322 1 1/2SM -DZ BR OVC004
     FM032200 26012G22KT P6SM OVC007
     FM040200 29011KT P6SM OVC015
     FM041400 30012G20KT P6SM SCT025 BKN150=



000
FTUS43 KLOT 031900 AAA
TAFRFD
TAF AMD
KRFD 031954Z 0320/0418 25012G22KT 3SM -DZ BR OVC007
     FM032200 25012G22KT 4SM BR OVC007
     FM040200 29011KT P6SM OVC015
     FM041400 30012G20KT P6SM SCT025 BKN150=



000
FTUS43 KLOT 031900 AAA
TAFDPA
TAF AMD
KDPA 031954Z 0320/0418 24014G24KT 2SM -DZ BR OVC007
      TEMPO 0320/0322 1 1/2SM -DZ BR OVC004
     FM032200 26012G22KT P6SM OVC007
     FM040200 29011KT P6SM OVC015
     FM041400 30012G20KT P6SM SCT025 BKN150=



000
FTUS43 KLOT 031900 AAA
TAFGYY
TAF AMD
KGYY 031954Z 0320/0418 20014G24KT 3SM -DZ BR OVC008
     FM032200 25014G23KT 4SM BR OVC009
     FM040300 29011KT P6SM OVC015
     FM041400 31012G20KT P6SM SCT025 BKN150=



000
FTUS43 KLOT 031900 AAA
TAFMDW
TAF AMD
KMDW 031954Z 0320/0418 24014G24KT 2SM -DZ OVC006
     FM032200 26013G22KT 4SM BR OVC008
     FM040200 29011KT P6SM OVC015
     FM041400 31012G20KT P6SM SCT025 BKN150=



000
FTUS43 KLOT 031900 AAA
TAFMDW
TAF AMD
KMDW 031954Z 0320/0418 24014G24KT 2SM -DZ OVC006
     FM032200 26013G22KT 4SM BR OVC008
     FM040200 29011KT P6SM OVC015
     FM041400 31012G20KT P6SM SCT025 BKN150=



000
FTUS43 KLOT 031900 AAA
TAFGYY
TAF AMD
KGYY 031954Z 0320/0418 20014G24KT 3SM -DZ BR OVC008
     FM032200 25014G23KT 4SM BR OVC009
     FM040300 29011KT P6SM OVC015
     FM041400 31012G20KT P6SM SCT025 BKN150=



000
FTUS43 KLOT 031900 AAA
TAFRFD
TAF AMD
KRFD 031954Z 0320/0418 25012G22KT 3SM -DZ BR OVC007
     FM032200 25012G22KT 4SM BR OVC007
     FM040200 29011KT P6SM OVC015
     FM041400 30012G20KT P6SM SCT025 BKN150=



000
FTUS43 KLOT 031900 AAA
TAFORD
TAF AMD
KORD 031954Z 0320/0424 24014G24KT 2SM -DZ BR OVC006
     FM032200 25013G22KT 4SM BR OVC008
     FM040200 29011KT P6SM OVC015
     FM041400 31012G20KT P6SM SCT025 BKN150
     FM041800 31015G25KT P6SM BKN100=



000
FTUS43 KLOT 031900 AAA
TAFORD
TAF AMD
KORD 031954Z 0320/0424 24014G24KT 2SM -DZ BR OVC006
     FM032200 25013G22KT 4SM BR OVC008
     FM040200 29011KT P6SM OVC015
     FM041400 31012G20KT P6SM SCT025 BKN150
     FM041800 31015G25KT P6SM BKN100=



000
FTUS43 KLOT 031700
TAFMDW
TAF
KMDW 031735Z 0318/0418 20016G25KT 3SM -DZ OVC007
      TEMPO 0318/0321 2SM -RA BR
     FM032100 26015G25KT 4SM BR OVC015
     FM040200 29011KT P6SM OVC025
     FM041400 30012G20KT P6SM SCT025 BKN150=



000
FTUS43 KLOT 031700
TAFGYY
TAF
KGYY 031735Z 0318/0418 20016G25KT 2SM -DZ OVC008
     FM032200 25014G23KT 4SM BR OVC015
     FM040300 28014G21KT P6SM OVC025
     FM041400 30012G20KT P6SM SCT025 BKN150=



000
FTUS43 KLOT 031700
TAFDPA
TAF
KDPA 031735Z 0318/0418 20017G25KT 2SM -FZDZ OVC007
      TEMPO 0318/0321 1 1/2SM -RA BR OVC005
     FM032100 26016G22KT P6SM OVC015
     FM040200 29013G20KT P6SM OVC025
     FM041400 30012G20KT P6SM SCT025 BKN150=



000
FTUS43 KLOT 031700
TAFRFD
TAF
KRFD 031735Z 0318/0418 22015G25KT 2SM -FZDZ BR OVC007
      TEMPO 0318/0321 1 1/2SM -DZ BR OVC005
     FM032100 25014G23KT P6SM OVC015
     FM040000 29014G21KT P6SM OVC025
     FM040700 32012KT P6SM SCT025 SCT150
     FM041400 30012G20KT P6SM SCT025 BKN150=



000
FTUS43 KLOT 031700
TAFGYY
TAF
KGYY 031735Z 0318/0418 20016G25KT 2SM -DZ OVC008
     FM032200 25014G23KT 4SM BR OVC015
     FM040300 28014G21KT P6SM OVC025
     FM041400 30012G20KT P6SM SCT025 BKN150=



000
FTUS43 KLOT 031700
TAFORD
TAF
KORD 031735Z 0318/0424 20016G25KT 1 1/2SM -FZDZ OVC007
     FM031900 21015G25KT 2SM -DZ BR OVC007
     FM032100 24015G25KT 4SM BR OVC008
     FM040200 29011KT P6SM OVC015
     FM041400 30012G20KT P6SM SCT025 BKN150
     FM041800 30015G25KT P6SM BKN100=



000
FTUS43 KLOT 031700
TAFMDW
TAF
KMDW 031735Z 0318/0418 20016G25KT 3SM -DZ OVC007
      TEMPO 0318/0321 2SM -RA BR
     FM032100 26015G25KT 4SM BR OVC015
     FM040200 29011KT P6SM OVC025
     FM041400 30012G20KT P6SM SCT025 BKN150=



000
FTUS43 KLOT 031700
TAFDPA
TAF
KDPA 031735Z 0318/0418 20017G25KT 2SM -FZDZ OVC007
      TEMPO 0318/0321 1 1/2SM -RA BR OVC005
     FM032100 26016G22KT P6SM OVC015
     FM040200 29013G20KT P6SM OVC025
     FM041400 30012G20KT P6SM SCT025 BKN150=



000
FTUS43 KLOT 031700
TAFRFD
TAF
KRFD 031735Z 0318/0418 22015G25KT 2SM -FZDZ BR OVC007
      TEMPO 0318/0321 1 1/2SM -DZ BR OVC005
     FM032100 25014G23KT P6SM OVC015
     FM040000 29014G21KT P6SM OVC025
     FM040700 32012KT P6SM SCT025 SCT150
     FM041400 30012G20KT P6SM SCT025 BKN150=



000
FTUS43 KLOT 031700
TAFGYY
TAF
KGYY 031735Z 0318/0418 20016G25KT 2SM -DZ OVC008
     FM032200 25014G23KT 4SM BR OVC015
     FM040300 28014G21KT P6SM OVC025
     FM041400 30012G20KT P6SM SCT025 BKN150=



000
FTUS43 KLOT 031700
TAFORD
TAF
KORD 031735Z 0318/0424 20016G25KT 1 1/2SM -FZDZ OVC007
     FM031900 21015G25KT 2SM -DZ BR OVC007
     FM032100 24015G25KT 4SM BR OVC008
     FM040200 29011KT P6SM OVC015
     FM041400 30012G20KT P6SM SCT025 BKN150
     FM041800 30015G25KT P6SM BKN100=



000
FTUS43 KLOT 031600 AAD
TAFRFD
TAF AMD
KRFD 031625Z 0316/0412 18018G28KT 3SM -FZDZSN BR OVC006
      TEMPO 0316/0318 1 1/2SM -FZDZ BR
     FM031800 22015G25KT 4SM -DZ BR OVC007
     FM032100 25014G23KT P6SM OVC015
     FM040000 29014G21KT P6SM OVC025
     FM040700 32012KT P6SM SCT025 SCT150=



000
FTUS43 KLOT 031600 AAE
TAFDPA
TAF AMD
KDPA 031625Z 0316/0412 19017G25KT 3SM -FZDZ BR OVC005
      TEMPO 0316/0318 1 1/2SM -FZDZ BR
     FM031800 20017G25KT 3SM -DZ OVC007
     FM032000 26016G22KT P6SM OVC015
     FM040200 29013G20KT P6SM OVC025=



000
FTUS43 KLOT 031500 AAD
TAFDPA
TAF AMD
KDPA 031552Z 0316/0412 19017G25KT 3SM -FZDZ BR OVC005
     FM031800 20017G25KT 4SM -DZ OVC007
     FM032000 26016G22KT P6SM OVC015
     FM040200 29013G20KT P6SM OVC025=



000
FTUS43 KLOT 031500 AAC
TAFRFD
TAF AMD
KRFD 031552Z 0316/0412 18018G28KT 3SM -FZDZSN BR OVC006
     FM031800 22015G25KT 5SM -DZ BR OVC007
     FM032100 25014G23KT P6SM OVC015
     FM040000 29014G21KT P6SM OVC025
     FM040700 32012KT P6SM SCT025 SCT150=



000
FTUS43 KLOT 031500 AAC
TAFORD
TAF AMD
KORD 031552Z 0316/0418 19017G25KT 3SM -FZDZ BR OVC007
     FM031800 20016G24KT 3SM -DZ OVC008
     FM032100 26013G22KT P6SM OVC015
     FM040200 29012G20KT P6SM OVC025
     FM041200 31010G16KT P6SM SCT025 BKN150=



000
FTUS43 KLOT 031500 AAC
TAFMDW
TAF AMD
KMDW 031552Z 0316/0412 19017G25KT 3SM -FZDZ BR OVC007
     FM031800 20016G24KT 4SM -DZ OVC008
     FM032100 26013G22KT P6SM OVC015
     FM040200 29012G20KT P6SM OVC025=



000
FTUS43 KLOT 031500 AAD
TAFGYY
TAF AMD
KGYY 031552Z 0316/0412 20017G22KT 3SM -FZDZ BR OVC008
     FM031800 20016G25KT 4SM -DZ OVC008
     FM032100 25014G23KT P6SM OVC015
     FM040300 28014G21KT P6SM OVC025=



000
FTUS43 KLOT 031500 AAC
TAFGYY
TAF AMD
KGYY 031524Z 0315/0412 17014G20KT 2SM -FZRA BR OVC007
     FM031600 20014G22KT 3SM -FZDZ BR OVC008
     FM031800 20016G25KT 4SM -DZ OVC008
     FM032100 25014G23KT P6SM OVC015
     FM040300 28014G21KT P6SM OVC025=



000
FTUS43 KLOT 031500 AAB
TAFRFD
TAF AMD
KRFD 031524Z 0315/0412 18018G28KT 3SM -FZDZSN BR OVC007
     FM031800 22015G25KT 5SM -DZ BR OVC007
     FM032100 25014G23KT P6SM OVC015
     FM040000 29014G21KT P6SM OVC025
     FM040700 32012KT P6SM SCT025 SCT150=



000
FTUS43 KLOT 031500 AAC
TAFGYY
TAF AMD
KGYY 031524Z 0315/0412 17014G20KT 2SM -FZRA BR OVC007
     FM031600 20014G22KT 3SM -FZDZ BR OVC008
     FM031800 20016G25KT 4SM -DZ OVC008
     FM032100 25014G23KT P6SM OVC015
     FM040300 28014G21KT P6SM OVC025=



000
FTUS43 KLOT 031500 AAB
TAFMDW
TAF AMD
KMDW 031524Z 0315/0412 17015G25KT 2SM -FZRA BR OVC006
     FM031600 19016G25KT 3SM -FZDZ BR OVC008
     FM031800 20016G24KT 4SM -DZ OVC008
     FM032100 26013G22KT P6SM OVC015
     FM040200 29012G20KT P6SM OVC025=



000
FTUS43 KLOT 031500 AAC
TAFDPA
TAF AMD
KDPA 031524Z 0315/0412 18015G25KT 2SM -FZDZ BR OVC005
     FM031800 20017G25KT 4SM -DZ OVC008
     FM032000 26016G22KT P6SM OVC015
     FM040200 29013G20KT P6SM OVC025=



000
FTUS43 KLOT 031500 AAB
TAFORD
TAF AMD
KORD 031524Z 0315/0418 18015G25KT 2SM -FZRA BR OVC006
     FM031600 19016G25KT 3SM -FZDZ BR OVC006
     FM031800 20016G24KT 3SM -DZ OVC008
     FM032100 26013G22KT P6SM OVC015
     FM040200 29012G20KT P6SM OVC025
     FM041200 31010G16KT P6SM SCT025 BKN150=



000
FTUS43 KLOT 031400 AAB
TAFGYY
TAF AMD
KGYY 031404Z 0314/0412 16014KT 2SM -FZRASN BR SCT007 OVC015
      TEMPO 0314/0315 1SM -FZDZ BR VV007
     FM031500 17014G20KT 2SM -FZRAPL BR OVC006
     FM031700 20014G22KT 4SM -FZDZ BR OVC008
     FM032100 25014G23KT P6SM OVC015
     FM040300 28014G21KT P6SM OVC025=



000
FTUS43 KLOT 031400 AAA
TAFRFD
TAF AMD
KRFD 031404Z 0314/0412 18014G24KT 4SM -FZRAPL BR SCT006 OVC009
      TEMPO 0314/0315 2SM -FZDZ BR VV006
     FM031800 22014G25KT 5SM -FZDZ BR OVC006
     FM032100 26014G23KT P6SM OVC015
     FM040000 29014G21KT P6SM OVC025
     FM040700 32012KT P6SM SCT025 SCT150=



000
FTUS43 KLOT 031400 AAA
TAFMDW
TAF AMD
KMDW 031404Z 0314/0412 15013KT 2SM -FZRA BR SCT007 OVC015
      TEMPO 0314/0315 1SM -FZDZ BR VV007
     FM031500 17013G20KT 1SM -FZRAPL BR BKN006 OVC015
     FM031700 19014G22KT 4SM -FZDZ BR OVC008
     FM032100 26014G22KT P6SM OVC015
     FM040200 29013G20KT P6SM OVC025=



000
FTUS43 KLOT 031400 AAA
TAFORD
TAF AMD
KORD 031404Z 0314/0418 15013KT 2SM -FZRASN BR SCT007 OVC015
      TEMPO 0314/0315 1SM -FZDZ BR VV007
     FM031500 18014G20KT 1SM -FZRAPL BR BKN006 OVC015
     FM031700 19014G22KT 4SM -FZDZ BR OVC008
     FM032100 26014G22KT P6SM OVC015
     FM040200 29013G20KT P6SM OVC025
     FM041200 31010G16KT P6SM SCT025 BKN150=



000
FTUS43 KLOT 031400 AAB
TAFDPA
TAF AMD
KDPA 031404Z 0314/0412 16014G22KT 1 1/2SM -SNPL BR SCT007 OVC025
      TEMPO 0314/0315 1SM -FZDZ BR VV006
     FM031500 18014G22KT 1SM -FZRAPL BR BKN006 OVC015
     FM031700 19014G23KT 4SM -FZDZ BR OVC008
     FM032100 26014G22KT P6SM OVC015
     FM040200 29013G20KT P6SM OVC025=



000
FTUS43 KLOT 031400 AAB
TAFGYY
TAF AMD
KGYY 031404Z 0314/0412 16014KT 2SM -FZRASN BR SCT007 OVC015
      TEMPO 0314/0315 1SM -FZDZ BR VV007
     FM031500 17014G20KT 2SM -FZRAPL BR OVC006
     FM031700 20014G22KT 4SM -FZDZ BR OVC008
     FM032100 25014G23KT P6SM OVC015
     FM040300 28014G21KT P6SM OVC025=



000
FTUS43 KLOT 031400 AAB
TAFDPA
TAF AMD
KDPA 031404Z 0314/0412 16014G22KT 1 1/2SM -SNPL BR SCT007 OVC025
      TEMPO 0314/0315 1SM -FZDZ BR VV006
     FM031500 18014G22KT 1SM -FZRAPL BR BKN006 OVC015
     FM031700 19014G23KT 4SM -FZDZ BR OVC008
     FM032100 26014G22KT P6SM OVC015
     FM040200 29013G20KT P6SM OVC025=



000
FTUS43 KLOT 031400 AAB
TAFGYY
TAF AMD
KGYY 031404Z 0314/0412 16014KT 2SM -FZRASN BR SCT007 OVC015
      TEMPO 0314/0315 1SM -FZDZ BR VV007
     FM031500 17014G20KT 2SM -FZRAPL BR OVC006
     FM031700 20014G22KT 4SM -FZDZ BR OVC008
     FM032100 25014G23KT P6SM OVC015
     FM040300 28014G21KT P6SM OVC025=



000
FTUS43 KLOT 031400 AAA
TAFMDW
TAF AMD
KMDW 031404Z 0314/0412 15013KT 2SM -FZRA BR SCT007 OVC015
      TEMPO 0314/0315 1SM -FZDZ BR VV007
     FM031500 17013G20KT 1SM -FZRAPL BR BKN006 OVC015
     FM031700 19014G22KT 4SM -FZDZ BR OVC008
     FM032100 26014G22KT P6SM OVC015
     FM040200 29013G20KT P6SM OVC025=



000
FTUS43 KLOT 031400 AAA
TAFORD
TAF AMD
KORD 031404Z 0314/0418 15013KT 2SM -FZRASN BR SCT007 OVC015
      TEMPO 0314/0315 1SM -FZDZ BR VV007
     FM031500 18014G20KT 1SM -FZRAPL BR BKN006 OVC015
     FM031700 19014G22KT 4SM -FZDZ BR OVC008
     FM032100 26014G22KT P6SM OVC015
     FM040200 29013G20KT P6SM OVC025
     FM041200 31010G16KT P6SM SCT025 BKN150=



000
FTUS43 KLOT 031400 AAA
TAFRFD
TAF AMD
KRFD 031404Z 0314/0412 18014G24KT 4SM -FZRAPL BR SCT006 OVC009
      TEMPO 0314/0315 2SM -FZDZ BR VV006
     FM031800 22014G25KT 5SM -FZDZ BR OVC006
     FM032100 26014G23KT P6SM OVC015
     FM040000 29014G21KT P6SM OVC025
     FM040700 32012KT P6SM SCT025 SCT150=



000
FTUS43 KLOT 031100 AAA
TAFDPA
TAF AMD
KDPA 031157Z 0312/0412 16012KT 4SM -SNPL BR SCT009 OVC025
      TEMPO 0313/0315 1/2SM SN FG VV007
     FM031500 18014G20KT 1SM -FZRAPL BR BKN006 OVC015
     FM031700 19014KT 4SM -DZ BR OVC008
     FM032200 26014G22KT P6SM OVC015
     FM040200 29013G20KT P6SM OVC025=



000
FTUS43 KLOT 031100 AAA
TAFGYY
TAF AMD
KGYY 031156Z 0312/0412 15011KT P6SM -SN SCT010 OVC035
      TEMPO 0312/0313 2SM -SN BR OVC007
     FM031300 15012KT 2SM -PLSN BR BKN008 OVC015
     FM031500 17013G20KT 2SM -FZRAPL BR OVC006
     FM031700 20014G22KT 4SM -DZ BR OVC008
     FM032200 25014G23KT P6SM OVC015
     FM040300 28014G21KT P6SM OVC025=



000
FTUS43 KLOT 031100 AAA
TAFGYY
TAF AMD
KGYY 031156Z 0312/0412 15011KT P6SM -SN SCT010 OVC035
      TEMPO 0312/0313 2SM -SN BR OVC007
     FM031300 15012KT 2SM -PLSN BR BKN008 OVC015
     FM031500 17013G20KT 2SM -FZRAPL BR OVC006
     FM031700 20014G22KT 4SM -DZ BR OVC008
     FM032200 25014G23KT P6SM OVC015
     FM040300 28014G21KT P6SM OVC025=



000
FTUS43 KLOT 031100
TAFMDW
TAF
KMDW 031128Z 0312/0412 14012KT 2SM -SN BR SCT010 OVC025
      TEMPO 0312/0314 1SM -SNPL BR OVC008
     FM031400 17013G19KT 1SM -FZRAPL BR BKN006 OVC015
     FM031700 19014KT 4SM -DZ BR OVC008
     FM032200 26014G22KT P6SM OVC015
     FM040200 29013G20KT P6SM OVC025=



000
FTUS43 KLOT 031100
TAFMDW
TAF
KMDW 031128Z 0312/0412 14012KT 2SM -SN BR SCT010 OVC025
      TEMPO 0312/0314 1SM -SNPL BR OVC008
     FM031400 17013G19KT 1SM -FZRAPL BR BKN006 OVC015
     FM031700 19014KT 4SM -DZ BR OVC008
     FM032200 26014G22KT P6SM OVC015
     FM040200 29013G20KT P6SM OVC025=



000
FTUS43 KLOT 031100
TAFDPA
TAF
KDPA 031128Z 0312/0412 16012KT 1 1/2SM -SN BR SCT009 OVC019
      TEMPO 0313/0315 1/2SM SN FG VV007
     FM031500 18014G20KT 1SM -FZRAPL BR BKN006 OVC015
     FM031700 19014KT 4SM -DZ BR OVC008
     FM032200 26014G22KT P6SM OVC015
     FM040200 29013G20KT P6SM OVC025=



000
FTUS43 KLOT 031100
TAFRFD
TAF
KRFD 031128Z 0312/0412 15014KT 1 1/2SM -SN BR OVC010
      TEMPO 0312/0314 1/2SM SN FG OVC007
     FM031400 16013KT 1SM -PLSN BR OVC007
     FM031600 18014KT 2SM -FZRAPL BR OVC004
     FM031800 22014G21KT 5SM -DZ BR OVC006
     FM032100 26014G22KT P6SM OVC015
     FM040000 29014G21KT P6SM OVC025
     FM040700 32012KT P6SM SCT025 SCT150=



000
FTUS43 KLOT 031100
TAFGYY
TAF
KGYY 031128Z 0312/0412 14011KT 5SM -SN BR SCT010 OVC030
      TEMPO 0312/0313 2SM -SN BR OVC007
     FM031300 15012KT 2SM -PLSN BR BKN008 OVC015
     FM031500 17013G20KT 2SM -FZRAPL BR OVC006
     FM031700 20014G22KT 4SM -DZ BR OVC008
     FM032200 25014G23KT P6SM OVC015
     FM040300 28014G21KT P6SM OVC025=



000
FTUS43 KLOT 031100
TAFGYY
TAF
KGYY 031128Z 0312/0412 14011KT 5SM -SN BR SCT010 OVC030
      TEMPO 0312/0313 2SM -SN BR OVC007
     FM031300 15012KT 2SM -PLSN BR BKN008 OVC015
     FM031500 17013G20KT 2SM -FZRAPL BR OVC006
     FM031700 20014G22KT 4SM -DZ BR OVC008
     FM032200 25014G23KT P6SM OVC015
     FM040300 28014G21KT P6SM OVC025=



000
FTUS43 KLOT 031100
TAFGYY
TAF
KGYY 031128Z 0312/0412 14011KT 5SM -SN BR SCT010 OVC030
      TEMPO 0312/0313 2SM -SN BR OVC007
     FM031300 15012KT 2SM -PLSN BR BKN008 OVC015
     FM031500 17013G20KT 2SM -FZRAPL BR OVC006
     FM031700 20014G22KT 4SM -DZ BR OVC008
     FM032200 25014G23KT P6SM OVC015
     FM040300 28014G21KT P6SM OVC025=



000
FTUS43 KLOT 031100
TAFORD
TAF
KORD 031128Z 0312/0418 15012KT 1 1/2SM -SN BR SCT009 OVC025
      TEMPO 0313/0315 1/2SM SN FG VV007
     FM031500 18014G20KT 1SM -FZRAPL BR BKN006 OVC015
     FM031700 19014KT 4SM -DZ BR OVC008
     FM032200 26014G22KT P6SM OVC015
     FM040200 29013G20KT P6SM OVC025
     FM041200 31010G16KT P6SM SCT025 BKN150=



000
FTUS43 KLOT 031100
TAFORD
TAF
KORD 031128Z 0312/0418 15012KT 1 1/2SM -SN BR SCT009 OVC025
      TEMPO 0313/0315 1/2SM SN FG VV007
     FM031500 18014G20KT 1SM -FZRAPL BR BKN006 OVC015
     FM031700 19014KT 4SM -DZ BR OVC008
     FM032200 26014G22KT P6SM OVC015
     FM040200 29013G20KT P6SM OVC025
     FM041200 31010G16KT P6SM SCT025 BKN150=



000
FTUS43 KLOT 031100
TAFGYY
TAF
KGYY 031128Z 0312/0412 14011KT 5SM -SN BR SCT010 OVC030
      TEMPO 0312/0313 2SM -SN BR OVC007
     FM031300 15012KT 2SM -PLSN BR BKN008 OVC015
     FM031500 17013G20KT 2SM -FZRAPL BR OVC006
     FM031700 20014G22KT 4SM -DZ BR OVC008
     FM032200 25014G23KT P6SM OVC015
     FM040300 28014G21KT P6SM OVC025=



000
FTUS43 KLOT 031100
TAFRFD
TAF
KRFD 031128Z 0312/0412 15014KT 1 1/2SM -SN BR OVC010
      TEMPO 0312/0314 1/2SM SN FG OVC007
     FM031400 16013KT 1SM -PLSN BR OVC007
     FM031600 18014KT 2SM -FZRAPL BR OVC004
     FM031800 22014G21KT 5SM -DZ BR OVC006
     FM032100 26014G22KT P6SM OVC015
     FM040000 29014G21KT P6SM OVC025
     FM040700 32012KT P6SM SCT025 SCT150=



000
FTUS43 KLOT 031100
TAFDPA
TAF
KDPA 031128Z 0312/0412 16012KT 1 1/2SM -SN BR SCT009 OVC019
      TEMPO 0313/0315 1/2SM SN FG VV007
     FM031500 18014G20KT 1SM -FZRAPL BR BKN006 OVC015
     FM031700 19014KT 4SM -DZ BR OVC008
     FM032200 26014G22KT P6SM OVC015
     FM040200 29013G20KT P6SM OVC025=



000
FTUS43 KLOT 031000 AAB
TAFRFD
TAF AMD
KRFD 031002Z 0310/0406 15012KT 5SM -SN SCT015 OVC030
      TEMPO 0310/0311 3/4SM -SN BR
     FM031100 15013KT 1 1/2SM -SN BR BKN010 OVC030
     FM031400 16013G19KT 1SM -PLSN BR OVC007
     FM031600 18014KT 2SM -FZRAPL BR OVC004
     FM031800 20014KT 5SM -DZ BR OVC006
     FM032100 25014G22KT P6SM OVC015
     FM040000 29014G21KT P6SM OVC025=



000
FTUS43 KLOT 031000 AAB
TAFRFD
TAF AMD
KRFD 031002Z 0310/0406 15012KT 5SM -SN SCT015 OVC030
      TEMPO 0310/0311 3/4SM -SN BR
     FM031100 15013KT 1 1/2SM -SN BR BKN010 OVC030
     FM031400 16013G19KT 1SM -PLSN BR OVC007
     FM031600 18014KT 2SM -FZRAPL BR OVC004
     FM031800 20014KT 5SM -DZ BR OVC006
     FM032100 25014G22KT P6SM OVC015
     FM040000 29014G21KT P6SM OVC025=



000
FTUS43 KLOT 030900 AAA
TAFGYY
TAF AMD
KGYY 030907Z 0309/0406 15008KT P6SM VCSH BKN045 OVC060
     FM031000 15010KT P6SM -SN OVC045
      TEMPO 0310/0311 3SM -SNPL OVC030
     FM031100 14011KT 1 1/2SM -SN BR BKN010 OVC030
     FM031300 15012KT 1SM -PLSN BR OVC007
     FM031500 18015G21KT 2SM -FZRAPL BR OVC004
     FM031800 21015G22KT 5SM -DZ BR OVC006
     FM032200 25014G23KT P6SM OVC015
     FM040300 28014G21KT P6SM OVC025=



000
FTUS43 KLOT 030900 AAA
TAFORD
TAF AMD
KORD 030907Z 0309/0412 15008KT P6SM VCSH SCT045 OVC060
     FM031000 15010KT P6SM -SN OVC045
      TEMPO 0310/0311 3SM -SNPL OVC030
     FM031100 15011KT 1 1/2SM -SN BR BKN010 OVC030
     FM031300 16012KT 1SM -PLSN BR OVC007
     FM031500 17015G21KT 2SM -FZRAPL BR OVC004
     FM031800 21015G22KT 5SM -DZ BR OVC006
     FM032200 25014G22KT P6SM OVC015
     FM040200 28014G21KT P6SM OVC025=



000
FTUS43 KLOT 030900 AAA
TAFGYY
TAF AMD
KGYY 030907Z 0309/0406 15008KT P6SM VCSH BKN045 OVC060
     FM031000 15010KT P6SM -SN OVC045
      TEMPO 0310/0311 3SM -SNPL OVC030
     FM031100 14011KT 1 1/2SM -SN BR BKN010 OVC030
     FM031300 15012KT 1SM -PLSN BR OVC007
     FM031500 18015G21KT 2SM -FZRAPL BR OVC004
     FM031800 21015G22KT 5SM -DZ BR OVC006
     FM032200 25014G23KT P6SM OVC015
     FM040300 28014G21KT P6SM OVC025=



000
FTUS43 KLOT 030900 AAA
TAFGYY
TAF AMD
KGYY 030907Z 0309/0406 15008KT P6SM VCSH BKN045 OVC060
     FM031000 15010KT P6SM -SN OVC045
      TEMPO 0310/0311 3SM -SNPL OVC030
     FM031100 14011KT 1 1/2SM -SN BR BKN010 OVC030
     FM031300 15012KT 1SM -PLSN BR OVC007
     FM031500 18015G21KT 2SM -FZRAPL BR OVC004
     FM031800 21015G22KT 5SM -DZ BR OVC006
     FM032200 25014G23KT P6SM OVC015
     FM040300 28014G21KT P6SM OVC025=



000
FTUS43 KLOT 030900 AAA
TAFRFD
TAF AMD
KRFD 030907Z 0309/0406 14009KT P6SM VCSH OVC045
     FM030945 14010KT 5SM -SN OVC030
      TEMPO 0310/0311 3SM -SNPL
     FM031100 14013KT 1 1/2SM -SN BR BKN010 OVC030
     FM031400 16013G19KT 1SM -PLSN BR OVC007
     FM031600 18014KT 2SM -FZRAPL BR OVC004
     FM031800 20014KT 5SM -DZ BR OVC006
     FM032100 25014G22KT P6SM OVC015
     FM040000 29014G21KT P6SM OVC025=



000
FTUS43 KLOT 030900 AAA
TAFGYY
TAF AMD
KGYY 030907Z 0309/0406 15008KT P6SM VCSH BKN045 OVC060
     FM031000 15010KT P6SM -SN OVC045
      TEMPO 0310/0311 3SM -SNPL OVC030
     FM031100 14011KT 1 1/2SM -SN BR BKN010 OVC030
     FM031300 15012KT 1SM -PLSN BR OVC007
     FM031500 18015G21KT 2SM -FZRAPL BR OVC004
     FM031800 21015G22KT 5SM -DZ BR OVC006
     FM032200 25014G23KT P6SM OVC015
     FM040300 28014G21KT P6SM OVC025=



000
FTUS43 KLOT 030900 AAA
TAFMDW
TAF AMD
KMDW 030907Z 0309/0406 15008KT P6SM VCSH SCT045 OVC060
     FM031000 15010KT P6SM -SN OVC045
      TEMPO 0310/0311 3SM -SNPL OVC030
     FM031100 14011KT 1 1/2SM -SN BR BKN010 OVC030
     FM031300 15012KT 1SM -PLSN BR OVC007
     FM031500 17015G21KT 2SM -FZRAPL BR OVC004
     FM031800 21015G22KT 5SM -DZ BR OVC006
     FM032200 25014G22KT P6SM OVC015
     FM040200 28014G21KT P6SM OVC025=



000
FTUS43 KLOT 030900 AAA
TAFORD
TAF AMD
KORD 030907Z 0309/0412 15008KT P6SM VCSH SCT045 OVC060
     FM031000 15010KT P6SM -SN OVC045
      TEMPO 0310/0311 3SM -SNPL OVC030
     FM031100 15011KT 1 1/2SM -SN BR BKN010 OVC030
     FM031300 16012KT 1SM -PLSN BR OVC007
     FM031500 17015G21KT 2SM -FZRAPL BR OVC004
     FM031800 21015G22KT 5SM -DZ BR OVC006
     FM032200 25014G22KT P6SM OVC015
     FM040200 28014G21KT P6SM OVC025=



000
FTUS43 KLOT 030900 AAA
TAFDPA
TAF AMD
KDPA 030907Z 0309/0406 15008KT P6SM VCSH SCT045 OVC060
     FM030945 15010KT P6SM -SN OVC045
      TEMPO 0310/0311 3SM -SNPL OVC030
     FM031100 15011KT 1 1/2SM -SN BR BKN010 OVC030
     FM031300 15012KT 1SM -PLSN BR OVC007
     FM031500 17015G21KT 2SM -FZRAPL BR OVC004
     FM031800 21015G22KT 5SM -DZ BR OVC006
     FM032200 25014G22KT P6SM OVC015
     FM040200 28014G21KT P6SM OVC025=



000
FTUS43 KLOT 030900 AAA
TAFMDW
TAF AMD
KMDW 030907Z 0309/0406 15008KT P6SM VCSH SCT045 OVC060
     FM031000 15010KT P6SM -SN OVC045
      TEMPO 0310/0311 3SM -SNPL OVC030
     FM031100 14011KT 1 1/2SM -SN BR BKN010 OVC030
     FM031300 15012KT 1SM -PLSN BR OVC007
     FM031500 17015G21KT 2SM -FZRAPL BR OVC004
     FM031800 21015G22KT 5SM -DZ BR OVC006
     FM032200 25014G22KT P6SM OVC015
     FM040200 28014G21KT P6SM OVC025=



000
FTUS43 KLOT 030900 AAA
TAFDPA
TAF AMD
KDPA 030907Z 0309/0406 15008KT P6SM VCSH SCT045 OVC060
     FM030945 15010KT P6SM -SN OVC045
      TEMPO 0310/0311 3SM -SNPL OVC030
     FM031100 15011KT 1 1/2SM -SN BR BKN010 OVC030
     FM031300 15012KT 1SM -PLSN BR OVC007
     FM031500 17015G21KT 2SM -FZRAPL BR OVC004
     FM031800 21015G22KT 5SM -DZ BR OVC006
     FM032200 25014G22KT P6SM OVC015
     FM040200 28014G21KT P6SM OVC025=



000
FTUS43 KLOT 030900 AAA
TAFRFD
TAF AMD
KRFD 030907Z 0309/0406 14009KT P6SM VCSH OVC045
     FM030945 14010KT 5SM -SN OVC030
      TEMPO 0310/0311 3SM -SNPL
     FM031100 14013KT 1 1/2SM -SN BR BKN010 OVC030
     FM031400 16013G19KT 1SM -PLSN BR OVC007
     FM031600 18014KT 2SM -FZRAPL BR OVC004
     FM031800 20014KT 5SM -DZ BR OVC006
     FM032100 25014G22KT P6SM OVC015
     FM040000 29014G21KT P6SM OVC025=



000
FTUS43 KLOT 030500
TAFGYY
TAF
KGYY 030539Z 0306/0406 15006KT P6SM OVC090
     FM031000 14010KT P6SM VCSH OVC045
     FM031100 14011KT 1 1/2SM -SN BR BKN010 OVC030
     FM031300 15012KT 1SM -PLSN BR OVC007
     FM031500 18015G21KT 2SM -FZRAPL BR OVC004
     FM031800 21015G22KT 5SM -DZ BR OVC006
     FM032200 25014G23KT P6SM OVC015
     FM040300 28014G21KT P6SM OVC025=



000
FTUS43 KLOT 030500
TAFRFD
TAF
KRFD 030539Z 0306/0406 15008KT P6SM OVC080
     FM030900 15010KT P6SM VCSH OVC045
     FM031100 14013KT 1 1/2SM -SN BR BKN010 OVC030
     FM031400 16013G19KT 1SM -PLSN BR OVC007
     FM031600 18014KT 2SM -FZRAPL BR OVC004
     FM031800 20014KT 5SM -DZ BR OVC006
     FM032100 25014G22KT P6SM OVC015
     FM040000 29014G21KT P6SM OVC025=



000
FTUS43 KLOT 030500
TAFORD
TAF
KORD 030539Z 0306/0412 16008KT P6SM OVC080
     FM031000 16010KT P6SM VCSH OVC045
     FM031100 15011KT 1 1/2SM -SN BR BKN010 OVC030
     FM031300 16012KT 1SM -PLSN BR OVC007
     FM031500 17015G21KT 2SM -FZRAPL BR OVC004
     FM031800 21015G22KT 5SM -DZ BR OVC006
     FM032200 25014G22KT P6SM OVC015
     FM040200 28014G21KT P6SM OVC025=



000
FTUS43 KLOT 030500
TAFMDW
TAF
KMDW 030539Z 0306/0406 15008KT P6SM OVC080
     FM031000 15010KT P6SM VCSH OVC045
     FM031100 14011KT 1 1/2SM -SN BR BKN010 OVC030
     FM031300 15012KT 1SM -PLSN BR OVC007
     FM031500 17015G21KT 2SM -FZRAPL BR OVC004
     FM031800 21015G22KT 5SM -DZ BR OVC006
     FM032200 25014G22KT P6SM OVC015
     FM040200 28014G21KT P6SM OVC025=



000
FTUS43 KLOT 030500
TAFDPA
TAF
KDPA 030539Z 0306/0406 15007KT P6SM OVC080
     FM031000 14010KT P6SM VCSH OVC045
     FM031100 14011KT 1 1/2SM -SN BR BKN010 OVC030
     FM031300 15012KT 1SM -PLSN BR OVC007
     FM031500 17015G21KT 2SM -FZRAPL BR OVC004
     FM031800 21015G22KT 5SM -DZ BR OVC006
     FM032200 25014G22KT P6SM OVC015
     FM040200 28014G21KT P6SM OVC025=



000
FTUS43 KLOT 030500
TAFRFD
TAF
KRFD 030539Z 0306/0406 15008KT P6SM OVC080
     FM030900 15010KT P6SM VCSH OVC045
     FM031100 14013KT 1 1/2SM -SN BR BKN010 OVC030
     FM031400 16013G19KT 1SM -PLSN BR OVC007
     FM031600 18014KT 2SM -FZRAPL BR OVC004
     FM031800 20014KT 5SM -DZ BR OVC006
     FM032100 25014G22KT P6SM OVC015
     FM040000 29014G21KT P6SM OVC025=



000
FTUS43 KLOT 030500
TAFGYY
TAF
KGYY 030539Z 0306/0406 15006KT P6SM OVC090
     FM031000 14010KT P6SM VCSH OVC045
     FM031100 14011KT 1 1/2SM -SN BR BKN010 OVC030
     FM031300 15012KT 1SM -PLSN BR OVC007
     FM031500 18015G21KT 2SM -FZRAPL BR OVC004
     FM031800 21015G22KT 5SM -DZ BR OVC006
     FM032200 25014G23KT P6SM OVC015
     FM040300 28014G21KT P6SM OVC025=



000
FTUS43 KLOT 030500
TAFORD
TAF
KORD 030539Z 0306/0412 16008KT P6SM OVC080
     FM031000 16010KT P6SM VCSH OVC045
     FM031100 15011KT 1 1/2SM -SN BR BKN010 OVC030
     FM031300 16012KT 1SM -PLSN BR OVC007
     FM031500 17015G21KT 2SM -FZRAPL BR OVC004
     FM031800 21015G22KT 5SM -DZ BR OVC006
     FM032200 25014G22KT P6SM OVC015
     FM040200 28014G21KT P6SM OVC025=



000
FTUS43 KLOT 030500
TAFDPA
TAF
KDPA 030539Z 0306/0406 15007KT P6SM OVC080
     FM031000 14010KT P6SM VCSH OVC045
     FM031100 14011KT 1 1/2SM -SN BR BKN010 OVC030
     FM031300 15012KT 1SM -PLSN BR OVC007
     FM031500 17015G21KT 2SM -FZRAPL BR OVC004
     FM031800 21015G22KT 5SM -DZ BR OVC006
     FM032200 25014G22KT P6SM OVC015
     FM040200 28014G21KT P6SM OVC025=



000
FTUS43 KLOT 030500
TAFMDW
TAF
KMDW 030539Z 0306/0406 15008KT P6SM OVC080
     FM031000 15010KT P6SM VCSH OVC045
     FM031100 14011KT 1 1/2SM -SN BR BKN010 OVC030
     FM031300 15012KT 1SM -PLSN BR OVC007
     FM031500 17015G21KT 2SM -FZRAPL BR OVC004
     FM031800 21015G22KT 5SM -DZ BR OVC006
     FM032200 25014G22KT P6SM OVC015
     FM040200 28014G21KT P6SM OVC025=



    US Dept of Commerce
    National Oceanic and Atmospheric Administration
    National Weather Service
    1325 East West Highway
    Silver Spring, MD 20910
    Page Author: NWS Internet Services Team
Disclaimer
Information Quality
Credits
Glossary
Privacy Policy
Freedom of Information Act (FOIA)
About Us
Career Opportunities